Terminal Aerodrome Forecast
Issued by NWS Twin Cities, MN

Home | Current Version | Previous Version | Graphics & Text | Print | Product List | Glossary On
Versions: 1 2 3 4 5 6 7 8 9 10 11 12 13 14 15 16 17
000
FTUS43 KMPX 251700
TAFEAU
TAF
KEAU 251734Z 2518/2618 24006KT P6SM BKN016
     FM251900 22005KT P6SM SCT018 BKN060
     FM260000 15003KT P6SM SCT050 BKN100
     FM261000 09004KT P6SM OVC050
     FM261400 07005KT 4SM -SN BR OVC035=

USA.gov is the U.S. government's official web portal to all federal, state and local government web resources and services.